sensor_id;sensor_type;location;lat;lon;timestamp;temperature;humidity
19892;DHT22;10108;50.142;8.724;2022-09-29T00:00:12;11.40;99.90
19892;DHT22;10108;50.142;8.724;2022-09-29T00:02:39;11.40;99.90
19892;DHT22;10108;50.142;8.724;2022-09-29T00:05:06;11.30;99.90
19892;DHT22;10108;50.142;8.724;2022-09-29T00:07:32;11.30;99.90
19892;DHT22;10108;50.142;8.724;2022-09-29T00:09:58;11.30;99.90
19892;DHT22;10108;50.142;8.724;2022-09-29T00:12:24;11.30;99.90
19892;DHT22;10108;50.142;8.724;2022-09-29T00:14:50;11.20;99.90
19892;DHT22;10108;50.142;8.724;2022-09-29T00:17:17;11.20;99.90
19892;DHT22;10108;50.142;8.724;2022-09-29T00:19:43;11.30;99.90
19892;DHT22;10108;50.142;8.724;2022-09-29T00:22:09;11.30;99.90
19892;DHT22;10108;50.142;8.724;2022-09-29T00:24:35;11.30;99.90
19892;DHT22;10108;50.142;8.724;2022-09-29T00:27:01;11.40;99.90
19892;DHT22;10108;50.142;8.724;2022-09-29T00:29:28;11.40;99.90
19892;DHT22;10108;50.142;8.724;2022-09-29T00:31:54;11.30;99.90
19892;DHT22;10108;50.142;8.724;2022-09-29T00:34:20;11.40;99.90
19892;DHT22;10108;50.142;8.724;2022-09-29T00:36:46;11.40;99.90
19892;DHT22;10108;50.142;8.724;2022-09-29T00:39:12;11.30;99.90
19892;DHT22;10108;50.142;8.724;2022-09-29T00:41:40;11.30;99.90
19892;DHT22;10108;50.142;8.724;2022-09-29T00:51:48;11.30;99.90
19892;DHT22;10108;50.142;8.724;2022-09-29T00:54:16;11.40;99.90
19892;DHT22;10108;50.142;8.724;2022-09-29T00:56:43;11.40;99.90
19892;DHT22;10108;50.142;8.724;2022-09-29T00:59:15;11.30;99.90
19892;DHT22;10108;50.142;8.724;2022-09-29T01:01:42;11.30;99.90
19892;DHT22;10108;50.142;8.724;2022-09-29T01:04:13;11.30;99.90
19892;DHT22;10108;50.142;8.724;2022-09-29T01:06:48;11.30;99.90
19892;DHT22;10108;50.142;8.724;2022-09-29T01:09:20;11.20;99.90
19892;DHT22;10108;50.142;8.724;2022-09-29T01:11:49;11.20;99.90
19892;DHT22;10108;50.142;8.724;2022-09-29T01:14:17;11.20;99.90
19892;DHT22;10108;50.142;8.724;2022-09-29T01:16:45;11.20;99.90
19892;DHT22;10108;50.142;8.724;2022-09-29T01:19:16;11.20;99.90
19892;DHT22;10108;50.142;8.724;2022-09-29T01:22:38;11.30;99.90
19892;DHT22;10108;50.142;8.724;2022-09-29T01:36:11;11.30;99.90
19892;DHT22;10108;50.142;8.724;2022-09-29T01:39:04;11.30;99.90
19892;DHT22;10108;50.142;8.724;2022-09-29T01:41:48;11.30;99.90
19892;DHT22;10108;50.142;8.724;2022-09-29T01:44:25;11.30;99.90
19892;DHT22;10108;50.142;8.724;2022-09-29T01:47:00;11.20;99.90
19892;DHT22;10108;50.142;8.724;2022-09-29T01:49:31;11.10;99.90
19892;DHT22;10108;50.142;8.724;2022-09-29T01:52:20;11.10;99.90
19892;DHT22;10108;50.142;8.724;2022-09-29T01:54:57;11.00;99.90
19892;DHT22;10108;50.142;8.724;2022-09-29T01:57:33;10.90;99.90
19892;DHT22;10108;50.142;8.724;2022-09-29T02:00:12;10.90;99.90
19892;DHT22;10108;50.142;8.724;2022-09-29T02:02:45;10.80;99.90
19892;DHT22;10108;50.142;8.724;2022-09-29T02:05:17;10.80;99.90
19892;DHT22;10108;50.142;8.724;2022-09-29T02:07:46;10.90;99.90
19892;DHT22;10108;50.142;8.724;2022-09-29T02:10:18;10.90;99.90
19892;DHT22;10108;50.142;8.724;2022-09-29T02:12:46;10.80;99.90
19892;DHT22;10108;50.142;8.724;2022-09-29T02:15:18;10.80;99.90
19892;DHT22;10108;50.142;8.724;2022-09-29T02:17:47;10.80;99.90
19892;DHT22;10108;50.142;8.724;2022-09-29T02:20:15;10.80;99.90
19892;DHT22;10108;50.142;8.724;2022-09-29T02:22:41;10.80;99.90
19892;DHT22;10108;50.142;8.724;2022-09-29T02:25:09;10.70;99.90
19892;DHT22;10108;50.142;8.724;2022-09-29T02:27:36;10.70;99.90
19892;DHT22;10108;50.142;8.724;2022-09-29T02:30:04;10.70;99.90
19892;DHT22;10108;50.142;8.724;2022-09-29T02:32:32;10.70;99.90
19892;DHT22;10108;50.142;8.724;2022-09-29T02:35:00;10.70;99.90
19892;DHT22;10108;50.142;8.724;2022-09-29T02:37:40;10.70;99.90
19892;DHT22;10108;50.142;8.724;2022-09-29T02:40:36;10.70;99.90
19892;DHT22;10108;50.142;8.724;2022-09-29T02:43:25;10.70;99.90
19892;DHT22;10108;50.142;8.724;2022-09-29T02:48:54;10.70;99.90
19892;DHT22;10108;50.142;8.724;2022-09-29T02:51:37;10.60;99.90
19892;DHT22;10108;50.142;8.724;2022-09-29T02:54:35;10.60;99.90
19892;DHT22;10108;50.142;8.724;2022-09-29T03:00:07;10.60;99.90
19892;DHT22;10108;50.142;8.724;2022-09-29T03:02:35;10.60;99.90
19892;DHT22;10108;50.142;8.724;2022-09-29T03:05:04;10.70;99.90
19892;DHT22;10108;50.142;8.724;2022-09-29T03:07:30;10.60;99.90
19892;DHT22;10108;50.142;8.724;2022-09-29T03:09:56;10.60;99.90
19892;DHT22;10108;50.142;8.724;2022-09-29T03:12:23;10.60;99.90
19892;DHT22;10108;50.142;8.724;2022-09-29T03:14:49;10.50;99.90
19892;DHT22;10108;50.142;8.724;2022-09-29T03:17:15;10.50;99.90
19892;DHT22;10108;50.142;8.724;2022-09-29T03:19:41;10.50;99.90
19892;DHT22;10108;50.142;8.724;2022-09-29T03:22:07;10.50;99.90
19892;DHT22;10108;50.142;8.724;2022-09-29T03:24:33;10.50;99.90
19892;DHT22;10108;50.142;8.724;2022-09-29T03:27:01;10.50;99.90
19892;DHT22;10108;50.142;8.724;2022-09-29T03:29:28;10.60;99.90
19892;DHT22;10108;50.142;8.724;2022-09-29T03:31:54;10.60;99.90
19892;DHT22;10108;50.142;8.724;2022-09-29T03:34:20;10.60;99.90
19892;DHT22;10108;50.142;8.724;2022-09-29T03:36:46;10.60;99.90
19892;DHT22;10108;50.142;8.724;2022-09-29T03:39:12;10.50;99.90
19892;DHT22;10108;50.142;8.724;2022-09-29T03:41:38;10.50;99.90
19892;DHT22;10108;50.142;8.724;2022-09-29T03:44:04;10.50;99.90
19892;DHT22;10108;50.142;8.724;2022-09-29T03:46:30;10.40;99.90
19892;DHT22;10108;50.142;8.724;2022-09-29T03:48:57;10.40;99.90
19892;DHT22;10108;50.142;8.724;2022-09-29T03:51:23;10.40;99.90
19892;DHT22;10108;50.142;8.724;2022-09-29T03:53:49;10.50;99.90
19892;DHT22;10108;50.142;8.724;2022-09-29T03:56:15;10.60;99.90
19892;DHT22;10108;50.142;8.724;2022-09-29T03:58:41;10.60;99.90
19892;DHT22;10108;50.142;8.724;2022-09-29T04:01:07;10.60;99.90
19892;DHT22;10108;50.142;8.724;2022-09-29T04:03:33;10.60;99.90
19892;DHT22;10108;50.142;8.724;2022-09-29T04:06:00;10.70;99.90
19892;DHT22;10108;50.142;8.724;2022-09-29T04:08:26;10.80;99.90
19892;DHT22;10108;50.142;8.724;2022-09-29T04:10:52;10.80;99.90
19892;DHT22;10108;50.142;8.724;2022-09-29T04:13:18;10.80;99.90
19892;DHT22;10108;50.142;8.724;2022-09-29T04:15:47;10.80;99.90
19892;DHT22;10108;50.142;8.724;2022-09-29T04:18:14;10.80;99.90
19892;DHT22;10108;50.142;8.724;2022-09-29T04:20:40;10.80;99.90
19892;DHT22;10108;50.142;8.724;2022-09-29T04:23:06;10.80;99.90
19892;DHT22;10108;50.142;8.724;2022-09-29T04:25:33;10.80;99.90
19892;DHT22;10108;50.142;8.724;2022-09-29T04:27:59;10.90;99.90
19892;DHT22;10108;50.142;8.724;2022-09-29T04:30:25;10.90;99.90
19892;DHT22;10108;50.142;8.724;2022-09-29T04:32:51;10.80;99.90
19892;DHT22;10108;50.142;8.724;2022-09-29T04:35:17;10.90;99.90
19892;DHT22;10108;50.142;8.724;2022-09-29T04:37:44;10.90;99.90
19892;DHT22;10108;50.142;8.724;2022-09-29T04:40:10;10.90;99.90
19892;DHT22;10108;50.142;8.724;2022-09-29T04:42:36;10.90;99.90
19892;DHT22;10108;50.142;8.724;2022-09-29T04:45:03;10.90;99.90
19892;DHT22;10108;50.142;8.724;2022-09-29T04:47:29;10.90;99.90
19892;DHT22;10108;50.142;8.724;2022-09-29T04:49:55;11.00;99.90
19892;DHT22;10108;50.142;8.724;2022-09-29T04:52:21;11.00;99.90
19892;DHT22;10108;50.142;8.724;2022-09-29T04:54:47;11.00;99.90
19892;DHT22;10108;50.142;8.724;2022-09-29T04:57:13;11.10;99.90
19892;DHT22;10108;50.142;8.724;2022-09-29T04:59:40;11.00;99.90
19892;DHT22;10108;50.142;8.724;2022-09-29T05:02:06;11.10;99.90
19892;DHT22;10108;50.142;8.724;2022-09-29T05:04:32;11.10;99.90
19892;DHT22;10108;50.142;8.724;2022-09-29T05:06:58;11.10;99.90
19892;DHT22;10108;50.142;8.724;2022-09-29T05:09:24;11.10;99.90
19892;DHT22;10108;50.142;8.724;2022-09-29T05:11:50;11.00;99.90
19892;DHT22;10108;50.142;8.724;2022-09-29T05:14:16;11.10;99.90
19892;DHT22;10108;50.142;8.724;2022-09-29T05:16:42;11.00;99.90
19892;DHT22;10108;50.142;8.724;2022-09-29T05:19:08;11.10;99.90
19892;DHT22;10108;50.142;8.724;2022-09-29T05:21:35;11.10;99.90
19892;DHT22;10108;50.142;8.724;2022-09-29T05:24:01;11.10;99.90
19892;DHT22;10108;50.142;8.724;2022-09-29T05:26:27;11.20;99.90
19892;DHT22;10108;50.142;8.724;2022-09-29T05:28:54;11.10;99.90
19892;DHT22;10108;50.142;8.724;2022-09-29T05:31:20;11.20;99.90
19892;DHT22;10108;50.142;8.724;2022-09-29T05:33:46;11.30;99.90
19892;DHT22;10108;50.142;8.724;2022-09-29T05:36:12;11.20;99.90
19892;DHT22;10108;50.142;8.724;2022-09-29T05:38:39;11.20;99.90
19892;DHT22;10108;50.142;8.724;2022-09-29T05:41:07;11.20;99.90
19892;DHT22;10108;50.142;8.724;2022-09-29T05:43:33;11.10;99.90
19892;DHT22;10108;50.142;8.724;2022-09-29T05:46:00;11.10;99.90
19892;DHT22;10108;50.142;8.724;2022-09-29T05:48:27;11.00;99.90
19892;DHT22;10108;50.142;8.724;2022-09-29T05:50:57;10.90;99.90
19892;DHT22;10108;50.142;8.724;2022-09-29T05:53:24;10.90;99.90
19892;DHT22;10108;50.142;8.724;2022-09-29T05:55:51;10.80;99.90
19892;DHT22;10108;50.142;8.724;2022-09-29T05:58:17;10.80;99.90
19892;DHT22;10108;50.142;8.724;2022-09-29T06:00:44;10.80;99.90
19892;DHT22;10108;50.142;8.724;2022-09-29T06:03:10;10.90;99.90
19892;DHT22;10108;50.142;8.724;2022-09-29T06:05:39;10.90;99.90
19892;DHT22;10108;50.142;8.724;2022-09-29T06:08:06;11.00;99.90
19892;DHT22;10108;50.142;8.724;2022-09-29T06:10:32;11.00;99.90
19892;DHT22;10108;50.142;8.724;2022-09-29T06:12:59;11.10;99.90
19892;DHT22;10108;50.142;8.724;2022-09-29T06:15:26;11.10;99.90
19892;DHT22;10108;50.142;8.724;2022-09-29T06:17:56;11.20;99.90
19892;DHT22;10108;50.142;8.724;2022-09-29T06:20:23;11.20;99.90
19892;DHT22;10108;50.142;8.724;2022-09-29T06:22:52;11.20;99.90
19892;DHT22;10108;50.142;8.724;2022-09-29T06:25:18;11.30;99.90
19892;DHT22;10108;50.142;8.724;2022-09-29T06:27:44;11.30;99.90
19892;DHT22;10108;50.142;8.724;2022-09-29T06:30:11;11.30;99.90
19892;DHT22;10108;50.142;8.724;2022-09-29T06:32:38;11.30;99.90
19892;DHT22;10108;50.142;8.724;2022-09-29T06:35:05;11.30;99.90
19892;DHT22;10108;50.142;8.724;2022-09-29T06:37:50;11.30;99.90
19892;DHT22;10108;50.142;8.724;2022-09-29T06:40:18;11.30;99.90
19892;DHT22;10108;50.142;8.724;2022-09-29T06:42:48;11.40;99.90
19892;DHT22;10108;50.142;8.724;2022-09-29T06:45:14;11.40;99.90
19892;DHT22;10108;50.142;8.724;2022-09-29T06:47:41;11.40;99.90
19892;DHT22;10108;50.142;8.724;2022-09-29T06:50:07;11.40;99.90
19892;DHT22;10108;50.142;8.724;2022-09-29T06:52:34;11.40;99.90
19892;DHT22;10108;50.142;8.724;2022-09-29T06:55:00;11.40;99.90
19892;DHT22;10108;50.142;8.724;2022-09-29T06:57:26;11.40;99.90
19892;DHT22;10108;50.142;8.724;2022-09-29T06:59:53;11.40;99.90
19892;DHT22;10108;50.142;8.724;2022-09-29T07:02:19;11.50;99.90
19892;DHT22;10108;50.142;8.724;2022-09-29T07:04:45;11.50;99.90
19892;DHT22;10108;50.142;8.724;2022-09-29T07:07:14;11.50;99.90
19892;DHT22;10108;50.142;8.724;2022-09-29T07:09:40;11.50;99.90
19892;DHT22;10108;50.142;8.724;2022-09-29T07:12:07;11.60;99.90
19892;DHT22;10108;50.142;8.724;2022-09-29T07:14:36;11.60;99.90
19892;DHT22;10108;50.142;8.724;2022-09-29T07:17:02;11.60;99.90
19892;DHT22;10108;50.142;8.724;2022-09-29T07:19:29;11.60;99.90
19892;DHT22;10108;50.142;8.724;2022-09-29T07:21:55;11.60;99.90
19892;DHT22;10108;50.142;8.724;2022-09-29T07:24:21;11.60;99.90
19892;DHT22;10108;50.142;8.724;2022-09-29T07:26:49;11.60;99.90
19892;DHT22;10108;50.142;8.724;2022-09-29T07:29:15;11.60;99.90
19892;DHT22;10108;50.142;8.724;2022-09-29T07:31:42;11.60;99.90
19892;DHT22;10108;50.142;8.724;2022-09-29T07:34:10;11.60;99.90
19892;DHT22;10108;50.142;8.724;2022-09-29T07:36:36;11.70;99.90
19892;DHT22;10108;50.142;8.724;2022-09-29T07:39:04;11.70;99.90
19892;DHT22;10108;50.142;8.724;2022-09-29T07:41:30;11.70;99.90
19892;DHT22;10108;50.142;8.724;2022-09-29T07:43:56;11.70;99.90
19892;DHT22;10108;50.142;8.724;2022-09-29T07:46:22;11.70;99.90
19892;DHT22;10108;50.142;8.724;2022-09-29T07:48:48;11.80;99.90
19892;DHT22;10108;50.142;8.724;2022-09-29T07:51:18;11.70;99.90
19892;DHT22;10108;50.142;8.724;2022-09-29T07:53:45;11.80;99.90
19892;DHT22;10108;50.142;8.724;2022-09-29T07:56:16;11.80;99.90
19892;DHT22;10108;50.142;8.724;2022-09-29T07:58:47;11.80;99.90
19892;DHT22;10108;50.142;8.724;2022-09-29T08:01:15;11.90;99.90
19892;DHT22;10108;50.142;8.724;2022-09-29T08:03:49;11.90;99.90
19892;DHT22;10108;50.142;8.724;2022-09-29T08:06:15;11.90;99.90
19892;DHT22;10108;50.142;8.724;2022-09-29T08:08:41;12.00;99.90
19892;DHT22;10108;50.142;8.724;2022-09-29T08:11:10;12.00;99.90
19892;DHT22;10108;50.142;8.724;2022-09-29T08:13:37;12.10;99.90
19892;DHT22;10108;50.142;8.724;2022-09-29T08:16:06;12.10;99.90
19892;DHT22;10108;50.142;8.724;2022-09-29T08:18:34;12.10;99.90
19892;DHT22;10108;50.142;8.724;2022-09-29T08:21:00;12.10;99.90
19892;DHT22;10108;50.142;8.724;2022-09-29T08:23:27;12.10;99.90
19892;DHT22;10108;50.142;8.724;2022-09-29T08:26:01;12.10;99.90
19892;DHT22;10108;50.142;8.724;2022-09-29T08:28:29;12.10;99.90
19892;DHT22;10108;50.142;8.724;2022-09-29T08:30:56;12.10;99.90
19892;DHT22;10108;50.142;8.724;2022-09-29T08:33:24;12.10;99.90
19892;DHT22;10108;50.142;8.724;2022-09-29T08:35:57;12.20;99.90
19892;DHT22;10108;50.142;8.724;2022-09-29T08:38:24;12.30;99.90
19892;DHT22;10108;50.142;8.724;2022-09-29T08:40:50;12.30;99.90
19892;DHT22;10108;50.142;8.724;2022-09-29T08:43:26;12.30;99.90
19892;DHT22;10108;50.142;8.724;2022-09-29T08:46:01;12.40;99.90
19892;DHT22;10108;50.142;8.724;2022-09-29T08:48:37;12.40;99.90
19892;DHT22;10108;50.142;8.724;2022-09-29T08:51:09;12.40;99.90
19892;DHT22;10108;50.142;8.724;2022-09-29T08:53:42;12.50;99.90
19892;DHT22;10108;50.142;8.724;2022-09-29T08:56:15;12.50;99.90
19892;DHT22;10108;50.142;8.724;2022-09-29T08:58:42;12.50;99.90
19892;DHT22;10108;50.142;8.724;2022-09-29T09:04:08;12.60;99.90
19892;DHT22;10108;50.142;8.724;2022-09-29T09:06:57;12.60;99.90
19892;DHT22;10108;50.142;8.724;2022-09-29T09:10:13;12.60;99.90
19892;DHT22;10108;50.142;8.724;2022-09-29T09:13:02;12.60;99.90
19892;DHT22;10108;50.142;8.724;2022-09-29T09:18:13;12.60;99.90
19892;DHT22;10108;50.142;8.724;2022-09-29T09:20:53;12.70;99.90
19892;DHT22;10108;50.142;8.724;2022-09-29T09:26:03;12.90;99.90
19892;DHT22;10108;50.142;8.724;2022-09-29T09:31:21;12.90;99.90
19892;DHT22;10108;50.142;8.724;2022-09-29T09:34:14;12.90;99.90
19892;DHT22;10108;50.142;8.724;2022-09-29T09:36:49;12.80;99.90
19892;DHT22;10108;50.142;8.724;2022-09-29T09:41:48;12.80;99.90
19892;DHT22;10108;50.142;8.724;2022-09-29T09:44:23;12.80;99.90
19892;DHT22;10108;50.142;8.724;2022-09-29T09:46:55;12.80;99.90
19892;DHT22;10108;50.142;8.724;2022-09-29T09:49:30;12.80;99.90
19892;DHT22;10108;50.142;8.724;2022-09-29T09:52:17;12.80;99.90
19892;DHT22;10108;50.142;8.724;2022-09-29T09:54:48;12.80;99.90
19892;DHT22;10108;50.142;8.724;2022-09-29T10:00:12;12.80;99.90
19892;DHT22;10108;50.142;8.724;2022-09-29T10:02:50;12.90;99.90
19892;DHT22;10108;50.142;8.724;2022-09-29T10:05:22;12.90;99.90
19892;DHT22;10108;50.142;8.724;2022-09-29T10:07:49;12.90;99.90
19892;DHT22;10108;50.142;8.724;2022-09-29T10:10:19;13.00;99.90
19892;DHT22;10108;50.142;8.724;2022-09-29T10:13:00;13.00;99.90
19892;DHT22;10108;50.142;8.724;2022-09-29T10:15:32;13.00;99.90
19892;DHT22;10108;50.142;8.724;2022-09-29T10:20:49;13.10;99.90
19892;DHT22;10108;50.142;8.724;2022-09-29T10:23:25;13.10;99.90
19892;DHT22;10108;50.142;8.724;2022-09-29T10:25:58;13.10;99.90
19892;DHT22;10108;50.142;8.724;2022-09-29T10:28:28;13.20;99.90
19892;DHT22;10108;50.142;8.724;2022-09-29T10:30:56;13.20;99.90
19892;DHT22;10108;50.142;8.724;2022-09-29T10:33:23;13.20;99.90
19892;DHT22;10108;50.142;8.724;2022-09-29T10:36:04;13.10;99.90
19892;DHT22;10108;50.142;8.724;2022-09-29T10:38:30;13.10;99.90
19892;DHT22;10108;50.142;8.724;2022-09-29T10:41:06;13.10;99.90
19892;DHT22;10108;50.142;8.724;2022-09-29T10:43:34;13.10;99.90
19892;DHT22;10108;50.142;8.724;2022-09-29T10:46:02;13.10;99.90
19892;DHT22;10108;50.142;8.724;2022-09-29T10:48:28;13.10;99.90
19892;DHT22;10108;50.142;8.724;2022-09-29T10:50:55;13.20;99.90
19892;DHT22;10108;50.142;8.724;2022-09-29T10:56:23;13.30;99.90
19892;DHT22;10108;50.142;8.724;2022-09-29T10:58:59;13.40;99.90
19892;DHT22;10108;50.142;8.724;2022-09-29T11:01:28;13.50;99.90
19892;DHT22;10108;50.142;8.724;2022-09-29T11:04:03;13.50;99.90
19892;DHT22;10108;50.142;8.724;2022-09-29T11:06:32;13.60;99.90
19892;DHT22;10108;50.142;8.724;2022-09-29T11:16:58;13.80;99.90
19892;DHT22;10108;50.142;8.724;2022-09-29T11:19:25;13.80;99.90
19892;DHT22;10108;50.142;8.724;2022-09-29T11:22:16;13.80;99.90
19892;DHT22;10108;50.142;8.724;2022-09-29T11:30:31;13.80;99.90
19892;DHT22;10108;50.142;8.724;2022-09-29T11:33:38;13.80;99.90
19892;DHT22;10108;50.142;8.724;2022-09-29T11:36:21;13.80;99.90
19892;DHT22;10108;50.142;8.724;2022-09-29T11:42:01;13.90;99.90
19892;DHT22;10108;50.142;8.724;2022-09-29T11:44:58;14.00;99.90
19892;DHT22;10108;50.142;8.724;2022-09-29T11:50:26;14.10;99.90
19892;DHT22;10108;50.142;8.724;2022-09-29T12:06:54;14.20;99.90
19892;DHT22;10108;50.142;8.724;2022-09-29T12:17:43;14.20;99.90
19892;DHT22;10108;50.142;8.724;2022-09-29T12:20:26;14.20;99.90
19892;DHT22;10108;50.142;8.724;2022-09-29T12:22:58;14.20;99.90
19892;DHT22;10108;50.142;8.724;2022-09-29T12:25:33;14.30;99.90
19892;DHT22;10108;50.142;8.724;2022-09-29T12:28:11;14.30;99.90
19892;DHT22;10108;50.142;8.724;2022-09-29T12:30:49;14.30;99.90
19892;DHT22;10108;50.142;8.724;2022-09-29T12:33:45;14.40;99.90
19892;DHT22;10108;50.142;8.724;2022-09-29T12:36:24;14.40;99.90
19892;DHT22;10108;50.142;8.724;2022-09-29T12:39:30;14.50;99.90
19892;DHT22;10108;50.142;8.724;2022-09-29T12:45:07;14.50;99.90
19892;DHT22;10108;50.142;8.724;2022-09-29T12:55:48;14.70;99.90
19892;DHT22;10108;50.142;8.724;2022-09-29T13:01:02;14.70;99.90
19892;DHT22;10108;50.142;8.724;2022-09-29T13:10:01;14.70;99.90
19892;DHT22;10108;50.142;8.724;2022-09-29T13:12:42;14.70;99.90
19892;DHT22;10108;50.142;8.724;2022-09-29T13:24:19;14.70;99.90
19892;DHT22;10108;50.142;8.724;2022-09-29T13:27:06;14.70;99.90
19892;DHT22;10108;50.142;8.724;2022-09-29T13:29:42;14.70;99.90
19892;DHT22;10108;50.142;8.724;2022-09-29T13:32:12;14.80;99.90
19892;DHT22;10108;50.142;8.724;2022-09-29T13:34:39;14.80;99.90
19892;DHT22;10108;50.142;8.724;2022-09-29T13:37:14;14.80;99.90
19892;DHT22;10108;50.142;8.724;2022-09-29T13:39:43;14.80;99.90
19892;DHT22;10108;50.142;8.724;2022-09-29T13:42:44;14.80;99.90
19892;DHT22;10108;50.142;8.724;2022-09-29T13:47:49;14.90;99.90
19892;DHT22;10108;50.142;8.724;2022-09-29T13:55:55;14.90;99.90
19892;DHT22;10108;50.142;8.724;2022-09-29T14:00:52;14.90;99.90
19892;DHT22;10108;50.142;8.724;2022-09-29T14:03:32;14.90;99.90
19892;DHT22;10108;50.142;8.724;2022-09-29T14:08:39;14.80;99.90
19892;DHT22;10108;50.142;8.724;2022-09-29T14:14:00;14.90;99.90
19892;DHT22;10108;50.142;8.724;2022-09-29T14:16:30;14.90;99.90
19892;DHT22;10108;50.142;8.724;2022-09-29T14:19:47;14.90;99.90
19892;DHT22;10108;50.142;8.724;2022-09-29T14:21:58;14.90;99.90
19892;DHT22;10108;50.142;8.724;2022-09-29T14:29:50;14.90;99.90
19892;DHT22;10108;50.142;8.724;2022-09-29T14:32:20;14.90;99.90
19892;DHT22;10108;50.142;8.724;2022-09-29T14:34:50;14.80;99.90
19892;DHT22;10108;50.142;8.724;2022-09-29T14:37:21;14.80;99.90
19892;DHT22;10108;50.142;8.724;2022-09-29T14:39:48;14.80;99.90
19892;DHT22;10108;50.142;8.724;2022-09-29T14:42:34;14.80;99.90
19892;DHT22;10108;50.142;8.724;2022-09-29T14:45:02;14.80;99.90
19892;DHT22;10108;50.142;8.724;2022-09-29T14:48:09;14.80;99.90
19892;DHT22;10108;50.142;8.724;2022-09-29T14:51:16;14.80;99.90
19892;DHT22;10108;50.142;8.724;2022-09-29T14:54:09;14.80;99.90
19892;DHT22;10108;50.142;8.724;2022-09-29T14:57:26;14.80;99.90
19892;DHT22;10108;50.142;8.724;2022-09-29T15:00:26;14.80;99.90
19892;DHT22;10108;50.142;8.724;2022-09-29T15:02:51;14.80;99.90
19892;DHT22;10108;50.142;8.724;2022-09-29T15:05:31;14.80;99.90
19892;DHT22;10108;50.142;8.724;2022-09-29T15:07:59;14.80;99.90
19892;DHT22;10108;50.142;8.724;2022-09-29T15:10:31;14.80;99.90
19892;DHT22;10108;50.142;8.724;2022-09-29T15:13:25;14.80;99.90
19892;DHT22;10108;50.142;8.724;2022-09-29T15:16:01;14.90;99.90
19892;DHT22;10108;50.142;8.724;2022-09-29T15:21:36;14.90;99.90
19892;DHT22;10108;50.142;8.724;2022-09-29T15:26:49;14.90;99.90
19892;DHT22;10108;50.142;8.724;2022-09-29T15:29:17;14.80;99.90
19892;DHT22;10108;50.142;8.724;2022-09-29T15:31:45;14.80;99.90
19892;DHT22;10108;50.142;8.724;2022-09-29T15:34:20;14.80;99.90
19892;DHT22;10108;50.142;8.724;2022-09-29T15:36:50;14.70;99.90
19892;DHT22;10108;50.142;8.724;2022-09-29T15:42:18;14.70;99.90
19892;DHT22;10108;50.142;8.724;2022-09-29T15:44:52;14.70;99.90
19892;DHT22;10108;50.142;8.724;2022-09-29T15:47:26;14.70;99.90
19892;DHT22;10108;50.142;8.724;2022-09-29T15:49:53;14.70;99.90
19892;DHT22;10108;50.142;8.724;2022-09-29T15:52:20;14.70;99.90
19892;DHT22;10108;50.142;8.724;2022-09-29T15:54:54;14.70;99.90
19892;DHT22;10108;50.142;8.724;2022-09-29T15:57:45;14.70;99.90
19892;DHT22;10108;50.142;8.724;2022-09-29T16:05:37;14.60;99.90
19892;DHT22;10108;50.142;8.724;2022-09-29T16:08:11;14.60;99.90
19892;DHT22;10108;50.142;8.724;2022-09-29T16:10:54;14.60;99.90
19892;DHT22;10108;50.142;8.724;2022-09-29T16:13:27;14.60;99.90
19892;DHT22;10108;50.142;8.724;2022-09-29T16:15:56;14.50;99.90
19892;DHT22;10108;50.142;8.724;2022-09-29T16:18:32;14.50;99.90
19892;DHT22;10108;50.142;8.724;2022-09-29T16:21:17;14.50;99.90
19892;DHT22;10108;50.142;8.724;2022-09-29T16:26:47;14.40;99.90
19892;DHT22;10108;50.142;8.724;2022-09-29T16:31:42;14.30;99.90
19892;DHT22;10108;50.142;8.724;2022-09-29T16:34:30;14.30;99.90
19892;DHT22;10108;50.142;8.724;2022-09-29T16:36:58;14.20;99.90
19892;DHT22;10108;50.142;8.724;2022-09-29T16:39:27;14.10;99.90
19892;DHT22;10108;50.142;8.724;2022-09-29T16:41:58;14.00;99.90
19892;DHT22;10108;50.142;8.724;2022-09-29T16:44:43;13.90;99.90
19892;DHT22;10108;50.142;8.724;2022-09-29T16:47:19;13.80;99.90
19892;DHT22;10108;50.142;8.724;2022-09-29T16:49:49;13.80;99.90
19892;DHT22;10108;50.142;8.724;2022-09-29T16:54:48;13.70;99.90
19892;DHT22;10108;50.142;8.724;2022-09-29T16:57:23;13.60;99.90
19892;DHT22;10108;50.142;8.724;2022-09-29T16:59:55;13.50;99.90
19892;DHT22;10108;50.142;8.724;2022-09-29T17:02:22;13.50;99.90
19892;DHT22;10108;50.142;8.724;2022-09-29T17:04:50;13.40;99.90
19892;DHT22;10108;50.142;8.724;2022-09-29T17:07:18;13.40;99.90
19892;DHT22;10108;50.142;8.724;2022-09-29T17:09:54;13.30;99.90
19892;DHT22;10108;50.142;8.724;2022-09-29T17:12:22;13.20;99.90
19892;DHT22;10108;50.142;8.724;2022-09-29T17:14:48;13.20;99.90
19892;DHT22;10108;50.142;8.724;2022-09-29T17:17:26;13.20;99.90
19892;DHT22;10108;50.142;8.724;2022-09-29T17:19:54;13.20;99.90
19892;DHT22;10108;50.142;8.724;2022-09-29T17:22:32;13.20;99.90
19892;DHT22;10108;50.142;8.724;2022-09-29T17:25:00;13.20;99.90
19892;DHT22;10108;50.142;8.724;2022-09-29T17:27:27;13.20;99.90
19892;DHT22;10108;50.142;8.724;2022-09-29T17:30:14;13.10;99.90
19892;DHT22;10108;50.142;8.724;2022-09-29T17:32:44;13.00;99.90
19892;DHT22;10108;50.142;8.724;2022-09-29T17:35:12;13.00;99.90
19892;DHT22;10108;50.142;8.724;2022-09-29T17:37:43;12.90;99.90
19892;DHT22;10108;50.142;8.724;2022-09-29T17:43:07;12.80;99.90
19892;DHT22;10108;50.142;8.724;2022-09-29T17:45:34;12.80;99.90
19892;DHT22;10108;50.142;8.724;2022-09-29T17:48:01;12.80;99.90
19892;DHT22;10108;50.142;8.724;2022-09-29T17:50:32;12.80;99.90
19892;DHT22;10108;50.142;8.724;2022-09-29T17:53:02;12.90;99.90
19892;DHT22;10108;50.142;8.724;2022-09-29T17:55:33;12.90;99.90
19892;DHT22;10108;50.142;8.724;2022-09-29T17:57:59;12.90;99.90
19892;DHT22;10108;50.142;8.724;2022-09-29T18:00:30;12.90;99.90
19892;DHT22;10108;50.142;8.724;2022-09-29T18:02:57;12.90;99.90
19892;DHT22;10108;50.142;8.724;2022-09-29T18:05:26;12.80;99.90
19892;DHT22;10108;50.142;8.724;2022-09-29T18:07:55;12.80;99.90
19892;DHT22;10108;50.142;8.724;2022-09-29T18:10:39;12.80;99.90
19892;DHT22;10108;50.142;8.724;2022-09-29T18:13:06;12.80;99.90
19892;DHT22;10108;50.142;8.724;2022-09-29T18:15:33;12.70;99.90
19892;DHT22;10108;50.142;8.724;2022-09-29T18:18:01;12.70;99.90
19892;DHT22;10108;50.142;8.724;2022-09-29T18:20:30;12.70;99.90
19892;DHT22;10108;50.142;8.724;2022-09-29T18:22:57;12.60;99.90
19892;DHT22;10108;50.142;8.724;2022-09-29T18:25:28;12.60;99.90
19892;DHT22;10108;50.142;8.724;2022-09-29T18:27:55;12.50;99.90
19892;DHT22;10108;50.142;8.724;2022-09-29T18:30:30;12.50;99.90
19892;DHT22;10108;50.142;8.724;2022-09-29T18:32:58;12.30;99.90
19892;DHT22;10108;50.142;8.724;2022-09-29T18:35:29;12.20;99.90
19892;DHT22;10108;50.142;8.724;2022-09-29T18:37:57;12.10;99.90
19892;DHT22;10108;50.142;8.724;2022-09-29T18:40:24;12.10;99.90